Time;durP1;ratioP1;P1;durP2;ratioP2;P2;SDS_P1;SDS_P2;PMS_P1;PMS_P2;Temp;Humidity;BMP_temperature;BMP_pressure;BME280_temperature;BME280_humidity;BME280_pressure;Samples;Min_cycle;Max_cycle;Signal;HPM_P1;HPM_P2
2022/08/15 03:01:26;;;;;;;;;;;28.90;40.10;;;;;;5471509;23;46236;-63
2022/08/15 03:03:52;;;;;;;;;;;28.80;40.20;;;;;;4916475;28;45646;-63
2022/08/15 03:06:19;;;;;;;;;;;28.80;40.20;;;;;;4924874;28;45996;-63
2022/08/15 03:08:45;;;;;;;;;;;28.90;40.20;;;;;;4926690;28;45177;-63
2022/08/15 03:11:11;;;;;;;;;;;28.90;40.10;;;;;;4929532;28;45035;-63
2022/08/15 03:13:39;;;;;;;;;;;28.90;40.20;;;;;;4927065;28;45249;-63
2022/08/15 03:16:05;;;;;;;;;;;28.90;40.10;;;;;;4930561;28;45616;-63
2022/08/15 03:18:32;;;;;;;;;;;28.90;40.10;;;;;;4933347;28;45032;-63
2022/08/15 03:20:58;;;;;;;;;;;28.90;40.10;;;;;;4927302;28;45489;-62
2022/08/15 03:23:25;;;;;;;;;;;28.90;40.10;;;;;;4932886;28;45477;-63
2022/08/15 03:25:51;;;;;;;;;;;28.90;40.10;;;;;;4929997;28;45980;-62
2022/08/15 03:28:18;;;;;;;;;;;28.80;40.00;;;;;;4915547;28;45342;-63
2022/08/15 03:30:43;;;;;;;;;;;28.80;40.00;;;;;;4933890;28;45546;-63
2022/08/15 03:33:09;;;;;;;;;;;28.80;40.10;;;;;;4931683;28;45578;-63
2022/08/15 03:35:38;;;;;;;;;;;28.80;40.00;;;;;;4922419;28;45403;-63
2022/08/15 03:38:04;;;;;;;;;;;28.80;40.00;;;;;;4928275;28;45584;-63
2022/08/15 03:40:29;;;;;;;;;;;28.70;40.00;;;;;;4930131;28;45405;-63
2022/08/15 03:42:57;;;;;;;;;;;28.80;40.10;;;;;;4929620;28;45764;-63
2022/08/15 03:45:22;;;;;;;;;;;28.80;40.00;;;;;;4929769;28;46053;-63
2022/08/15 03:47:48;;;;;;;;;;;28.70;40.00;;;;;;4928360;28;45328;-63
2022/08/15 03:50:14;;;;;;;;;;;28.70;40.00;;;;;;4929012;28;45268;-63
2022/08/15 03:52:51;;;;;;;;;;;28.70;40.10;;;;;;4927878;28;45581;-63
2022/08/15 03:55:17;;;;;;;;;;;28.80;40.30;;;;;;4926414;28;47014;-63
2022/08/15 03:57:44;;;;;;;;;;;28.70;40.10;;;;;;4925375;28;44664;-63
2022/08/15 04:00:11;;;;;;;;;;;28.70;40.20;;;;;;4926586;28;45142;-63
2022/08/15 04:02:36;;;;;;;;;;;28.70;40.20;;;;;;4926292;28;45641;-63
2022/08/15 04:05:02;;;;;;;;;;;28.70;40.10;;;;;;4927545;28;45034;-63
2022/08/15 04:07:28;;;;;;;;;;;28.70;40.10;;;;;;4906748;28;45632;-63
2022/08/15 04:09:53;;;;;;;;;;;28.70;40.10;;;;;;4927707;28;45898;-63
2022/08/15 04:12:29;;;;;;;;;;;28.70;40.10;;;;;;4927574;28;45613;-63
2022/08/15 04:14:55;;;;;;;;;;;28.70;40.10;;;;;;4910920;28;45578;-63
2022/08/15 04:17:20;;;;;;;;;;;28.70;40.10;;;;;;4927242;28;45324;-63
2022/08/15 04:19:46;;;;;;;;;;;28.70;40.10;;;;;;4927491;28;45065;-63
2022/08/15 04:22:11;;;;;;;;;;;28.70;40.20;;;;;;4926684;28;45673;-63
2022/08/15 04:24:37;;;;;;;;;;;28.60;40.30;;;;;;4926982;28;45844;-63
2022/08/15 04:27:02;;;;;;;;;;;28.60;40.20;;;;;;4907711;28;45147;-63
2022/08/15 04:29:28;;;;;;;;;;;28.60;40.30;;;;;;4911269;28;45360;-63
2022/08/15 04:31:54;;;;;;;;;;;28.60;40.40;;;;;;4926617;28;45442;-63
2022/08/15 04:34:20;;;;;;;;;;;28.60;40.50;;;;;;4925849;28;45844;-63
2022/08/15 04:36:46;;;;;;;;;;;28.60;40.40;;;;;;4927878;28;46608;-63
2022/08/15 04:39:12;;;;;;;;;;;28.60;40.40;;;;;;4928023;28;45435;-63
2022/08/15 04:41:37;;;;;;;;;;;28.60;40.40;;;;;;4909996;28;45528;-63
2022/08/15 04:44:03;;;;;;;;;;;28.60;40.30;;;;;;4926611;28;46071;-63
2022/08/15 04:46:29;;;;;;;;;;;28.60;40.30;;;;;;4925673;28;45279;-63
2022/08/15 04:48:54;;;;;;;;;;;28.60;40.40;;;;;;4926602;28;45858;-63
2022/08/15 04:51:20;;;;;;;;;;;28.50;40.30;;;;;;4925029;28;45292;-63
2022/08/15 04:53:46;;;;;;;;;;;28.60;40.40;;;;;;4926171;28;46188;-63
2022/08/15 04:56:11;;;;;;;;;;;28.50;40.30;;;;;;4925839;28;45270;-63
2022/08/15 04:58:37;;;;;;;;;;;28.50;40.40;;;;;;4926688;28;45681;-63
2022/08/15 05:01:07;;;;;;;;;;;28.50;40.40;;;;;;4913308;28;44734;-63
2022/08/15 05:03:32;;;;;;;;;;;28.50;40.40;;;;;;4927128;28;45983;-63
2022/08/15 05:05:59;;;;;;;;;;;28.50;40.40;;;;;;4929558;28;45094;-63
2022/08/15 05:08:28;;;;;;;;;;;28.50;40.50;;;;;;4931657;28;45107;-63
2022/08/15 05:10:55;;;;;;;;;;;28.50;40.60;;;;;;4930420;28;45615;-62
2022/08/15 05:13:21;;;;;;;;;;;28.40;40.50;;;;;;4961712;28;47347;-63
2022/08/15 05:15:47;;;;;;;;;;;28.50;40.60;;;;;;4928814;28;44960;-63
2022/08/15 05:18:12;;;;;;;;;;;28.40;40.50;;;;;;4932585;28;45192;-62
2022/08/15 05:20:39;;;;;;;;;;;28.40;40.60;;;;;;4946819;28;45030;-63
2022/08/15 05:23:09;;;;;;;;;;;28.40;40.60;;;;;;4930826;28;46087;-63
2022/08/15 05:25:36;;;;;;;;;;;28.40;40.60;;;;;;4926663;28;45183;-63
2022/08/15 05:28:02;;;;;;;;;;;28.40;40.60;;;;;;4930170;28;45587;-63
2022/08/15 05:30:27;;;;;;;;;;;28.40;40.60;;;;;;4931195;28;45079;-63
2022/08/15 05:33:19;;;;;;;;;;;28.60;40.30;;;;;;4931265;28;46055;-63
2022/08/15 05:35:46;;;;;;;;;;;28.60;40.20;;;;;;4924369;28;44982;-63
2022/08/15 05:38:14;;;;;;;;;;;28.70;40.10;;;;;;4930374;28;45382;-63
2022/08/15 05:40:53;;;;;;;;;;;28.70;40.20;;;;;;4931258;28;45318;-63
2022/08/15 05:43:33;;;;;;;;;;;28.60;40.40;;;;;;4929349;28;46265;-63
2022/08/15 05:46:01;;;;;;;;;;;28.60;40.50;;;;;;4929125;28;44816;-63
2022/08/15 05:48:31;;;;;;;;;;;28.50;40.50;;;;;;4931353;28;45351;-63
2022/08/15 05:51:06;;;;;;;;;;;28.50;40.80;;;;;;4931818;28;45307;-63
2022/08/15 05:53:37;;;;;;;;;;;28.40;40.90;;;;;;4933137;28;45435;-63
2022/08/15 05:56:04;;;;;;;;;;;28.40;41.10;;;;;;4926866;28;44785;-63
2022/08/15 05:58:43;;;;;;;;;;;28.30;41.10;;;;;;4929452;28;45322;-63
2022/08/15 06:01:13;;;;;;;;;;;28.40;41.30;;;;;;4928578;28;45674;-63
2022/08/15 06:03:40;;;;;;;;;;;28.30;41.30;;;;;;4928298;28;46018;-63
2022/08/15 06:06:06;;;;;;;;;;;28.30;41.40;;;;;;4929306;28;45246;-63
2022/08/15 06:08:34;;;;;;;;;;;28.30;41.50;;;;;;4931898;28;45528;-63
2022/08/15 06:11:10;;;;;;;;;;;28.30;41.60;;;;;;4958176;28;45569;-63
2022/08/15 06:13:47;;;;;;;;;;;28.40;41.60;;;;;;4928624;28;45655;-62
2022/08/15 06:16:18;;;;;;;;;;;28.40;41.70;;;;;;4923864;28;44952;-63
2022/08/15 06:18:44;;;;;;;;;;;28.40;41.80;;;;;;4927325;28;45136;-63
2022/08/15 06:21:15;;;;;;;;;;;28.40;41.80;;;;;;4926507;28;45621;-63
2022/08/15 06:23:48;;;;;;;;;;;28.50;41.80;;;;;;4921797;28;46527;-63
2022/08/15 06:26:13;;;;;;;;;;;28.60;41.70;;;;;;4926025;28;45530;-63
2022/08/15 06:28:58;;;;;;;;;;;28.70;41.50;;;;;;4922345;28;45008;-63
2022/08/15 06:31:31;;;;;;;;;;;28.60;41.70;;;;;;4922763;28;45020;-63
2022/08/15 06:34:16;;;;;;;;;;;28.50;41.90;;;;;;4929350;28;45122;-63
2022/08/15 06:36:44;;;;;;;;;;;28.50;42.10;;;;;;4926285;28;45589;-63
2022/08/15 06:39:09;;;;;;;;;;;28.50;42.10;;;;;;4924178;28;46047;-63
2022/08/15 06:41:38;;;;;;;;;;;28.50;42.20;;;;;;4924739;28;45406;-62
2022/08/15 06:44:04;;;;;;;;;;;28.50;42.20;;;;;;4927362;28;46186;-63
2022/08/15 06:46:33;;;;;;;;;;;28.40;42.30;;;;;;4909750;28;45234;-63
2022/08/15 06:48:59;;;;;;;;;;;28.40;42.30;;;;;;4922165;28;46931;-63
2022/08/15 06:51:26;;;;;;;;;;;28.40;42.40;;;;;;4926379;28;45721;-63
2022/08/15 06:53:56;;;;;;;;;;;28.40;42.30;;;;;;4930650;28;46422;-62
2022/08/15 06:56:25;;;;;;;;;;;28.40;42.40;;;;;;4927618;28;45445;-63
2022/08/15 06:59:08;;;;;;;;;;;28.40;42.50;;;;;;4927084;28;44983;-63
2022/08/15 07:01:33;;;;;;;;;;;28.40;42.60;;;;;;4927759;28;45800;-63
2022/08/15 07:04:18;;;;;;;;;;;28.30;42.70;;;;;;4930060;28;45710;-63
2022/08/15 07:06:45;;;;;;;;;;;28.30;42.90;;;;;;4928501;28;45508;-63
2022/08/15 07:09:13;;;;;;;;;;;28.30;43.00;;;;;;4929214;28;45511;-63
2022/08/15 07:11:42;;;;;;;;;;;28.30;43.10;;;;;;4929804;28;45238;-63
2022/08/15 07:14:17;;;;;;;;;;;28.30;43.10;;;;;;4961881;28;45066;-63
2022/08/15 07:16:49;;;;;;;;;;;28.30;43.20;;;;;;4931096;28;45527;-63
2022/08/15 07:19:14;;;;;;;;;;;28.30;43.30;;;;;;4913386;28;45668;-63
2022/08/15 07:21:40;;;;;;;;;;;28.30;43.30;;;;;;4905487;28;46049;-63
2022/08/15 07:24:21;;;;;;;;;;;28.30;43.30;;;;;;4921221;28;48280;-62
2022/08/15 07:26:47;;;;;;;;;;;28.30;43.30;;;;;;4927043;28;45203;-62
2022/08/15 07:29:34;;;;;;;;;;;28.20;43.40;;;;;;4916293;28;45390;-62
2022/08/15 07:32:18;;;;;;;;;;;28.30;43.40;;;;;;4920830;28;45492;-62
2022/08/15 07:35:12;;;;;;;;;;;28.20;43.40;;;;;;4918763;28;45591;-63
2022/08/15 07:37:59;;;;;;;;;;;28.20;43.60;;;;;;4913833;28;45559;-63
2022/08/15 07:40:46;;;;;;;;;;;28.20;43.50;;;;;;4901280;28;45654;-63
2022/08/15 07:43:35;;;;;;;;;;;28.20;43.60;;;;;;4914704;28;45174;-63
2022/08/15 07:46:22;;;;;;;;;;;28.30;43.50;;;;;;4919822;28;45378;-63
2022/08/15 07:49:21;;;;;;;;;;;28.30;43.60;;;;;;4918804;28;45524;-62
2022/08/15 07:52:16;;;;;;;;;;;28.30;43.70;;;;;;4920475;28;45125;-62
2022/08/15 07:55:13;;;;;;;;;;;28.20;43.70;;;;;;4919215;28;45059;-63
2022/08/15 07:58:03;;;;;;;;;;;28.30;43.90;;;;;;4917249;28;46062;-62
2022/08/15 08:03:28;;;;;;;;;;;28.30;44.00;;;;;;4924628;28;45392;-63
2022/08/15 08:06:03;;;;;;;;;;;28.20;44.00;;;;;;4924583;28;46016;-63
2022/08/15 08:08:31;;;;;;;;;;;28.20;44.50;;;;;;4946679;28;46007;-62
2022/08/15 08:11:00;;;;;;;;;;;28.30;43.70;;;;;;4931654;28;45484;-62
2022/08/15 08:13:44;;;;;;;;;;;28.30;43.60;;;;;;4932831;28;45292;-63
2022/08/15 08:16:20;;;;;;;;;;;28.30;43.50;;;;;;4924431;28;45325;-63
2022/08/15 08:19:24;;;;;;;;;;;28.40;43.50;;;;;;4945113;28;45710;-63
2022/08/15 08:21:52;;;;;;;;;;;28.30;43.60;;;;;;4907109;28;45581;-63
2022/08/15 08:24:27;;;;;;;;;;;28.40;43.60;;;;;;4890131;28;45760;-63
2022/08/15 08:27:05;;;;;;;;;;;28.40;43.30;;;;;;4912269;28;44865;-63
2022/08/15 08:29:35;;;;;;;;;;;28.40;43.20;;;;;;4931742;28;45472;-63
2022/08/15 08:32:12;;;;;;;;;;;28.50;43.20;;;;;;4919543;28;45964;-63
2022/08/15 08:34:56;;;;;;;;;;;28.50;43.20;;;;;;4927723;28;45679;-63
2022/08/15 08:37:41;;;;;;;;;;;28.50;43.10;;;;;;4946990;28;45408;-63
2022/08/15 08:43:13;;;;;;;;;;;28.50;43.00;;;;;;4944877;28;45686;-63
2022/08/15 08:45:44;;;;;;;;;;;28.50;42.90;;;;;;4925603;28;46019;-63
2022/08/15 08:48:28;;;;;;;;;;;28.60;42.90;;;;;;4913249;28;45944;-63
2022/08/15 08:50:56;;;;;;;;;;;28.60;42.90;;;;;;4945743;28;45362;-63
2022/08/15 08:53:31;;;;;;;;;;;28.60;42.80;;;;;;4944364;28;45720;-63
2022/08/15 08:56:08;;;;;;;;;;;28.60;42.70;;;;;;4925497;28;45235;-62
2022/08/15 08:58:40;;;;;;;;;;;28.60;42.60;;;;;;4931441;28;44865;-63
2022/08/15 09:01:06;;;;;;;;;;;28.70;42.70;;;;;;4926225;28;45476;-63
2022/08/15 09:03:36;;;;;;;;;;;28.70;42.60;;;;;;4930037;28;45495;-63
2022/08/15 09:06:02;;;;;;;;;;;28.70;42.40;;;;;;4924845;28;45709;-63
2022/08/15 09:08:32;;;;;;;;;;;28.70;42.30;;;;;;4945126;28;45653;-63
2022/08/15 09:11:18;;;;;;;;;;;28.70;42.30;;;;;;4943040;28;47568;-63
2022/08/15 09:13:44;;;;;;;;;;;28.70;42.20;;;;;;4944970;28;45618;-63
2022/08/15 09:16:28;;;;;;;;;;;28.70;42.10;;;;;;4927646;28;45160;-63
2022/08/15 09:18:56;;;;;;;;;;;28.70;42.00;;;;;;4944617;28;45371;-63
2022/08/15 09:21:22;;;;;;;;;;;28.70;42.10;;;;;;4944710;28;45646;-63
2022/08/15 09:23:47;;;;;;;;;;;28.70;42.00;;;;;;4928573;28;45069;-63
2022/08/15 09:26:19;;;;;;;;;;;28.70;41.90;;;;;;4926874;28;46448;-63
2022/08/15 09:28:45;;;;;;;;;;;28.70;41.90;;;;;;4917343;28;45173;-63
2022/08/15 09:31:18;;;;;;;;;;;28.80;41.90;;;;;;4925270;28;47412;-62
2022/08/15 09:34:04;;;;;;;;;;;28.80;41.90;;;;;;4927545;28;45998;-62
2022/08/15 09:36:33;;;;;;;;;;;28.80;41.90;;;;;;4914488;28;45224;-63
2022/08/15 09:39:17;;;;;;;;;;;28.80;41.80;;;;;;4925300;28;44850;-63
2022/08/15 09:41:47;;;;;;;;;;;28.90;41.90;;;;;;4943932;28;46250;-63
2022/08/15 09:44:12;;;;;;;;;;;28.90;41.80;;;;;;4928485;28;44983;-63
2022/08/15 09:46:45;;;;;;;;;;;28.90;41.80;;;;;;4964221;28;45685;-62
2022/08/15 09:49:16;;;;;;;;;;;28.90;41.80;;;;;;4946709;28;45018;-62
2022/08/15 09:51:47;;;;;;;;;;;28.90;41.70;;;;;;4929694;28;46105;-63
2022/08/15 09:54:23;;;;;;;;;;;28.90;41.60;;;;;;4932941;28;45255;-63
2022/08/15 09:56:50;;;;;;;;;;;29.00;41.60;;;;;;4938256;28;46489;-63
2022/08/15 09:59:19;;;;;;;;;;;29.00;41.40;;;;;;4905195;28;45344;-63
2022/08/15 10:01:50;;;;;;;;;;;29.00;41.30;;;;;;4930444;28;46002;-63
2022/08/15 10:04:17;;;;;;;;;;;29.00;41.20;;;;;;4928905;28;45418;-63
2022/08/15 10:06:51;;;;;;;;;;;29.00;41.10;;;;;;4930902;28;45736;-63
2022/08/15 10:09:21;;;;;;;;;;;29.00;41.00;;;;;;4943610;28;45869;-63
2022/08/15 10:11:46;;;;;;;;;;;29.00;41.30;;;;;;4927350;28;46109;-63
2022/08/15 10:14:21;;;;;;;;;;;29.00;40.50;;;;;;4955714;28;45409;-63
2022/08/15 10:16:53;;;;;;;;;;;29.00;40.50;;;;;;4948611;28;45526;-63
2022/08/15 10:19:38;;;;;;;;;;;29.00;40.20;;;;;;4927953;28;45508;-62
2022/08/15 10:22:19;;;;;;;;;;;29.00;40.10;;;;;;4947224;28;46484;-62
2022/08/15 10:24:45;;;;;;;;;;;29.10;40.00;;;;;;4929463;28;45422;-63
2022/08/15 10:27:17;;;;;;;;;;;29.10;40.00;;;;;;4934329;28;45113;-63
2022/08/15 10:29:50;;;;;;;;;;;29.10;40.00;;;;;;4950332;28;45426;-63
2022/08/15 10:32:25;;;;;;;;;;;29.10;40.10;;;;;;4922701;28;45233;-63
2022/08/15 10:34:59;;;;;;;;;;;29.10;40.10;;;;;;4948774;28;45020;-63
2022/08/15 10:37:37;;;;;;;;;;;29.10;40.20;;;;;;4935479;28;45443;-63
2022/08/15 10:40:21;;;;;;;;;;;29.20;40.20;;;;;;4931901;28;44913;-63
2022/08/15 10:42:54;;;;;;;;;;;29.20;40.20;;;;;;4960978;28;45776;-63
2022/08/15 10:45:22;;;;;;;;;;;29.20;39.90;;;;;;4928546;28;45039;-63
2022/08/15 10:47:59;;;;;;;;;;;29.20;39.70;;;;;;4949164;28;45690;-64
2022/08/15 10:50:25;;;;;;;;;;;29.20;39.60;;;;;;4919468;28;44922;-63
2022/08/15 10:53:07;;;;;;;;;;;29.20;39.60;;;;;;4934571;28;46813;-63
2022/08/15 10:55:36;;;;;;;;;;;29.20;39.60;;;;;;4951297;28;45594;-63
2022/08/15 10:58:09;;;;;;;;;;;29.20;39.60;;;;;;4949751;28;45396;-64
2022/08/15 11:00:51;;;;;;;;;;;29.20;39.60;;;;;;4949447;28;44962;-63
2022/08/15 11:03:29;;;;;;;;;;;29.30;40.40;;;;;;4927238;28;45760;-63
2022/08/15 11:05:58;;;;;;;;;;;29.30;39.70;;;;;;4921356;28;45617;-63
2022/08/15 11:08:24;;;;;;;;;;;29.30;39.80;;;;;;4951630;28;45261;-63
2022/08/15 11:10:50;;;;;;;;;;;29.30;39.80;;;;;;4945531;28;45655;-63
2022/08/15 11:13:17;;;;;;;;;;;29.30;39.80;;;;;;4934801;28;45486;-63
2022/08/15 11:15:47;;;;;;;;;;;29.30;39.80;;;;;;4941383;28;45488;-63
2022/08/15 11:18:13;;;;;;;;;;;29.30;39.80;;;;;;4918311;28;45136;-63
2022/08/15 11:20:45;;;;;;;;;;;29.30;39.80;;;;;;4917546;28;45510;-63
2022/08/15 11:23:10;;;;;;;;;;;29.30;39.80;;;;;;4945368;28;46058;-63
2022/08/15 11:25:37;;;;;;;;;;;29.30;39.70;;;;;;4950792;28;45027;-63
2022/08/15 11:28:03;;;;;;;;;;;29.40;39.60;;;;;;4933503;28;45442;-63
2022/08/15 11:30:30;;;;;;;;;;;29.40;39.30;;;;;;4945736;28;46233;-63
2022/08/15 11:32:55;;;;;;;;;;;29.40;39.30;;;;;;4927673;28;45383;-63
2022/08/15 11:35:24;;;;;;;;;;;29.50;39.30;;;;;;4934664;28;45030;-63
2022/08/15 11:37:49;;;;;;;;;;;29.50;39.00;;;;;;4948781;28;45663;-63
2022/08/15 11:40:21;;;;;;;;;;;29.50;39.00;;;;;;4949586;28;45583;-63
2022/08/15 11:42:46;;;;;;;;;;;29.50;39.60;;;;;;4949725;28;45149;-63
2022/08/15 11:45:15;;;;;;;;;;;29.50;39.10;;;;;;4949490;28;45052;-63
2022/08/15 11:47:48;;;;;;;;;;;29.50;39.10;;;;;;4952361;28;45486;-63
2022/08/15 11:50:32;;;;;;;;;;;29.50;39.10;;;;;;4929594;28;45448;-63
2022/08/15 11:53:00;;;;;;;;;;;29.50;39.10;;;;;;4916672;28;45964;-63
2022/08/15 11:55:25;;;;;;;;;;;29.50;39.10;;;;;;4956365;28;44906;-62
2022/08/15 11:57:52;;;;;;;;;;;29.50;39.00;;;;;;4953270;28;45183;-62
2022/08/15 12:00:21;;;;;;;;;;;29.50;38.90;;;;;;4916219;28;45532;-62
2022/08/15 12:02:47;;;;;;;;;;;29.50;38.90;;;;;;4950896;28;47245;-62
2022/08/15 12:05:14;;;;;;;;;;;29.50;38.80;;;;;;4962584;28;45533;-63
2022/08/15 12:07:41;;;;;;;;;;;29.50;38.70;;;;;;4965547;28;44945;-63
2022/08/15 12:10:07;;;;;;;;;;;29.60;38.70;;;;;;4952390;28;45621;-63
2022/08/15 12:12:39;;;;;;;;;;;29.60;38.60;;;;;;4934352;28;45803;-63
2022/08/15 12:15:14;;;;;;;;;;;29.60;38.60;;;;;;4949911;28;44911;-62
2022/08/15 12:17:43;;;;;;;;;;;29.60;39.10;;;;;;4950990;28;45407;-63
2022/08/15 12:20:09;;;;;;;;;;;29.60;38.10;;;;;;4934376;28;45610;-62
2022/08/15 12:22:36;;;;;;;;;;;29.60;37.80;;;;;;4936566;28;45478;-63
2022/08/15 12:25:01;;;;;;;;;;;29.70;37.70;;;;;;4931209;28;46043;-63
2022/08/15 12:27:28;;;;;;;;;;;29.70;37.60;;;;;;4948497;28;45757;-63
2022/08/15 12:29:53;;;;;;;;;;;29.70;37.50;;;;;;4951159;28;45303;-63
2022/08/15 12:32:19;;;;;;;;;;;29.70;37.40;;;;;;4932682;28;46191;-62
2022/08/15 12:34:46;;;;;;;;;;;29.80;37.40;;;;;;4947010;28;45277;-63
2022/08/15 12:37:13;;;;;;;;;;;29.80;37.40;;;;;;4947310;28;45825;-63
2022/08/15 12:39:39;;;;;;;;;;;29.80;37.30;;;;;;4948359;28;45527;-63
2022/08/15 12:42:04;;;;;;;;;;;29.80;37.30;;;;;;4948480;28;45642;-62
2022/08/15 12:44:33;;;;;;;;;;;29.80;37.20;;;;;;4934864;28;44734;-63
2022/08/15 12:46:58;;;;;;;;;;;29.80;37.20;;;;;;4950545;28;44785;-63
2022/08/15 12:49:24;;;;;;;;;;;29.80;37.30;;;;;;4931433;28;45822;-63
2022/08/15 12:51:49;;;;;;;;;;;29.80;37.20;;;;;;4944357;28;45269;-63
2022/08/15 12:54:15;;;;;;;;;;;29.80;37.30;;;;;;4935332;28;45614;-62
2022/08/15 12:56:41;;;;;;;;;;;29.80;37.20;;;;;;4953505;28;45274;-63
2022/08/15 12:59:06;;;;;;;;;;;29.80;37.20;;;;;;4964618;28;45618;-63
2022/08/15 13:01:32;;;;;;;;;;;29.90;37.10;;;;;;4947769;28;45756;-63
2022/08/15 13:03:58;;;;;;;;;;;29.80;36.90;;;;;;4937845;28;45301;-63
2022/08/15 13:06:32;;;;;;;;;;;29.90;36.80;;;;;;4930929;28;45595;-63
2022/08/15 13:08:58;;;;;;;;;;;29.90;36.80;;;;;;4946309;28;44719;-63
2022/08/15 13:11:25;;;;;;;;;;;30.00;36.70;;;;;;4945893;28;45964;-63
2022/08/15 13:13:50;;;;;;;;;;;30.00;36.70;;;;;;4931418;28;45988;-63
2022/08/15 13:16:16;;;;;;;;;;;30.00;36.70;;;;;;4945664;28;45601;-63
2022/08/15 13:18:41;;;;;;;;;;;30.00;37.30;;;;;;4933242;28;45933;-63
2022/08/15 13:23:52;;;;;;;;;;;30.00;37.10;;;;;;4948430;28;45575;-63
2022/08/15 13:26:18;;;;;;;;;;;30.00;36.50;;;;;;4947832;28;45286;-63
2022/08/15 13:28:44;;;;;;;;;;;30.10;36.50;;;;;;4948026;28;45299;-63
2022/08/15 13:31:10;;;;;;;;;;;30.10;36.60;;;;;;4946824;28;45987;-63
2022/08/15 13:33:37;;;;;;;;;;;30.10;36.50;;;;;;4928766;28;45646;-63
2022/08/15 13:36:09;;;;;;;;;;;30.10;36.50;;;;;;4928077;28;45446;-63
2022/08/15 13:38:38;;;;;;;;;;;30.10;36.40;;;;;;4931059;28;45646;-63
2022/08/15 13:41:03;;;;;;;;;;;30.10;36.30;;;;;;4930983;28;45980;-63
2022/08/15 13:43:29;;;;;;;;;;;30.20;36.20;;;;;;4930292;28;45568;-63
2022/08/15 13:45:54;;;;;;;;;;;30.20;36.00;;;;;;4946293;28;45711;-63
2022/08/15 13:48:24;;;;;;;;;;;30.20;35.90;;;;;;4947728;28;45408;-63
2022/08/15 13:50:51;;;;;;;;;;;30.20;35.80;;;;;;4914478;28;45990;-63
2022/08/15 13:53:17;;;;;;;;;;;30.20;36.50;;;;;;4932418;28;45193;-63
2022/08/15 13:55:42;;;;;;;;;;;30.20;35.80;;;;;;4930864;28;45513;-63
2022/08/15 13:58:07;;;;;;;;;;;30.30;35.50;;;;;;4947147;28;45538;-63
2022/08/15 14:00:33;;;;;;;;;;;30.30;35.20;;;;;;4912350;28;45836;-63
2022/08/15 14:03:00;;;;;;;;;;;30.30;34.90;;;;;;4930412;28;45427;-63
2022/08/15 14:05:26;;;;;;;;;;;30.30;34.60;;;;;;4932814;28;45136;-63
2022/08/15 14:07:51;;;;;;;;;;;30.40;34.50;;;;;;4933770;28;45153;-63
2022/08/15 14:10:20;;;;;;;;;;;30.40;34.40;;;;;;4945063;28;45861;-63
2022/08/15 14:12:45;;;;;;;;;;;30.40;34.20;;;;;;4949170;28;45219;-63
2022/08/15 14:15:13;;;;;;;;;;;30.40;34.00;;;;;;4946509;28;45145;-63
2022/08/15 14:17:39;;;;;;;;;;;30.40;33.80;;;;;;4949678;28;45370;-63
2022/08/15 14:20:08;;;;;;;;;;;30.40;33.70;;;;;;4928418;28;45648;-63
2022/08/15 14:22:33;;;;;;;;;;;30.40;33.50;;;;;;4929445;28;45448;-63
2022/08/15 14:24:59;;;;;;;;;;;30.40;33.50;;;;;;4947519;28;45032;-62
2022/08/15 14:27:26;;;;;;;;;;;30.40;34.20;;;;;;4948908;28;46378;-62
2022/08/15 14:29:52;;;;;;;;;;;30.40;33.40;;;;;;4946353;28;45981;-62
2022/08/15 14:32:19;;;;;;;;;;;30.50;33.50;;;;;;4946703;28;45090;-62
2022/08/15 14:34:45;;;;;;;;;;;30.50;33.50;;;;;;4947873;28;45536;-62
2022/08/15 14:37:13;;;;;;;;;;;30.50;33.40;;;;;;4948150;28;45059;-62
2022/08/15 14:39:38;;;;;;;;;;;30.50;33.40;;;;;;4945384;28;46250;-62
2022/08/15 14:42:04;;;;;;;;;;;30.50;33.40;;;;;;4946683;28;45006;-61
2022/08/15 14:44:30;;;;;;;;;;;30.60;33.30;;;;;;4949046;28;45043;-62
2022/08/15 14:46:55;;;;;;;;;;;30.50;33.00;;;;;;4947282;28;45500;-62
2022/08/15 14:49:21;;;;;;;;;;;30.50;32.60;;;;;;4933609;28;47588;-62
2022/08/15 14:51:46;;;;;;;;;;;30.50;32.40;;;;;;4948391;28;45759;-62
2022/08/15 14:54:14;;;;;;;;;;;30.60;32.40;;;;;;4931890;28;45852;-62
2022/08/15 14:56:40;;;;;;;;;;;30.60;32.50;;;;;;4948920;28;45442;-62
2022/08/15 14:59:06;;;;;;;;;;;30.60;32.50;;;;;;4934092;28;46909;-63
2022/08/15 15:01:32;;;;;;;;;;;30.60;32.50;;;;;;4930601;28;45452;-62
2022/08/15 15:03:58;;;;;;;;;;;30.60;32.50;;;;;;4949115;28;45443;-62
2022/08/15 15:06:24;;;;;;;;;;;30.60;32.60;;;;;;4952070;28;45466;-62
2022/08/15 15:08:50;;;;;;;;;;;30.60;32.50;;;;;;4940407;28;45905;-62
2022/08/15 15:11:16;;;;;;;;;;;30.60;32.50;;;;;;4931467;28;45961;-62
2022/08/15 15:13:43;;;;;;;;;;;30.60;32.50;;;;;;4938817;28;45788;-62
2022/08/15 15:16:09;;;;;;;;;;;30.60;32.30;;;;;;4950235;28;45333;-63
2022/08/15 15:18:35;;;;;;;;;;;30.70;32.40;;;;;;4953246;28;46440;-62
2022/08/15 15:21:00;;;;;;;;;;;30.70;32.40;;;;;;4932229;28;45669;-62
2022/08/15 15:23:26;;;;;;;;;;;30.70;32.40;;;;;;4920135;28;45174;-62
2022/08/15 15:25:51;;;;;;;;;;;30.70;32.20;;;;;;4953469;28;45526;-63
2022/08/15 15:28:17;;;;;;;;;;;30.70;32.30;;;;;;4950550;28;45239;-62
2022/08/15 15:30:43;;;;;;;;;;;30.70;32.30;;;;;;4953946;28;47121;-62
2022/08/15 15:33:08;;;;;;;;;;;30.70;32.30;;;;;;4915448;28;45260;-62
2022/08/15 15:35:34;;;;;;;;;;;30.70;31.80;;;;;;4948580;28;45332;-62
2022/08/15 15:37:59;;;;;;;;;;;30.70;31.90;;;;;;4921577;28;47127;-62
2022/08/15 15:40:25;;;;;;;;;;;30.70;31.70;;;;;;4954324;28;45537;-63
2022/08/15 15:42:51;;;;;;;;;;;30.70;31.60;;;;;;4951629;28;45553;-63
2022/08/15 15:45:16;;;;;;;;;;;30.70;31.50;;;;;;4939938;28;45645;-62
2022/08/15 15:47:43;;;;;;;;;;;30.70;31.50;;;;;;4955270;28;46128;-62
2022/08/15 15:50:12;;;;;;;;;;;30.70;31.60;;;;;;4958697;28;45230;-62
2022/08/15 15:52:37;;;;;;;;;;;30.70;31.50;;;;;;4935479;28;44976;-62
2022/08/15 15:55:03;;;;;;;;;;;30.80;31.70;;;;;;4951019;28;44984;-62
2022/08/15 15:57:30;;;;;;;;;;;30.80;31.60;;;;;;4954419;28;45137;-62
2022/08/15 15:59:55;;;;;;;;;;;30.80;31.70;;;;;;4937415;28;45559;-62
2022/08/15 16:02:22;;;;;;;;;;;30.80;31.70;;;;;;4968035;28;45501;-62
2022/08/15 16:04:48;;;;;;;;;;;30.80;31.60;;;;;;4952971;28;45545;-62
2022/08/15 16:07:14;;;;;;;;;;;30.80;31.60;;;;;;4952541;28;46860;-62
2022/08/15 16:09:39;;;;;;;;;;;30.80;31.50;;;;;;4940973;28;45576;-62
2022/08/15 16:12:07;;;;;;;;;;;30.80;31.70;;;;;;4954680;28;45668;-62
2022/08/15 16:14:33;;;;;;;;;;;30.80;31.60;;;;;;4924395;28;45333;-62
2022/08/15 16:17:00;;;;;;;;;;;30.80;31.50;;;;;;4956622;28;45290;-61
2022/08/15 16:19:26;;;;;;;;;;;30.80;31.40;;;;;;4953718;28;45412;-63
2022/08/15 16:22:06;;;;;;;;;;;30.80;31.50;;;;;;4951189;28;45708;-62
2022/08/15 16:24:50;;;;;;;;;;;30.80;31.60;;;;;;4952880;28;45446;-62
2022/08/15 16:27:19;;;;;;;;;;;30.80;31.60;;;;;;4951697;28;46249;-62
2022/08/15 16:29:56;;;;;;;;;;;30.80;31.50;;;;;;4948708;28;45621;-62
2022/08/15 16:32:24;;;;;;;;;;;30.80;31.50;;;;;;4964839;28;45511;-62
2022/08/15 16:34:54;;;;;;;;;;;30.80;31.60;;;;;;4927101;28;46460;-62
2022/08/15 16:37:21;;;;;;;;;;;30.80;31.70;;;;;;4953575;28;46110;-62
2022/08/15 16:39:54;;;;;;;;;;;30.80;31.80;;;;;;4934056;28;45282;-63
2022/08/15 16:42:31;;;;;;;;;;;30.80;31.90;;;;;;4937381;28;45199;-62
2022/08/15 16:44:57;;;;;;;;;;;30.80;32.00;;;;;;4953185;28;45019;-62
2022/08/15 16:47:29;;;;;;;;;;;30.80;32.00;;;;;;4954521;28;45585;-62
2022/08/15 16:49:56;;;;;;;;;;;30.80;32.10;;;;;;4923768;28;45207;-62
2022/08/15 16:52:25;;;;;;;;;;;30.80;32.20;;;;;;4931847;28;45281;-62
2022/08/15 16:55:09;;;;;;;;;;;30.70;32.30;;;;;;4949504;28;45085;-62
2022/08/15 16:57:38;;;;;;;;;;;30.80;32.40;;;;;;4962530;28;46122;-62
2022/08/15 17:00:04;;;;;;;;;;;30.80;32.40;;;;;;4946296;28;45747;-61
2022/08/15 17:02:35;;;;;;;;;;;30.70;32.40;;;;;;4961508;28;45790;-62
2022/08/15 17:05:04;;;;;;;;;;;30.70;32.40;;;;;;4927653;28;44834;-63
2022/08/15 17:07:36;;;;;;;;;;;30.70;32.50;;;;;;4946558;28;46012;-63
2022/08/15 17:10:05;;;;;;;;;;;30.70;32.50;;;;;;4950629;28;45225;-63
2022/08/15 17:12:35;;;;;;;;;;;30.70;32.60;;;;;;4927677;28;45122;-63
2022/08/15 17:15:02;;;;;;;;;;;30.70;32.60;;;;;;4934739;28;45506;-63
2022/08/15 17:17:34;;;;;;;;;;;30.70;32.70;;;;;;4931410;28;45261;-63
2022/08/15 17:20:00;;;;;;;;;;;30.70;32.70;;;;;;4946668;28;45318;-63
2022/08/15 17:22:45;;;;;;;;;;;30.70;32.70;;;;;;4949999;28;45513;-63
2022/08/15 17:25:20;;;;;;;;;;;30.70;32.70;;;;;;4960998;28;46003;-63
2022/08/15 17:27:49;;;;;;;;;;;30.70;32.70;;;;;;4951530;28;45836;-63
2022/08/15 17:30:19;;;;;;;;;;;30.70;32.70;;;;;;4946038;28;45372;-63
2022/08/15 17:32:54;;;;;;;;;;;30.60;32.70;;;;;;4947674;28;45512;-63
2022/08/15 17:35:23;;;;;;;;;;;30.70;32.70;;;;;;4947915;28;45442;-63
2022/08/15 17:37:49;;;;;;;;;;;30.60;32.60;;;;;;4946991;28;46178;-63
2022/08/15 17:40:16;;;;;;;;;;;30.60;32.70;;;;;;4930883;28;45576;-62